Terminal Aerodrome Forecast
Issued by NWS Louisville, KY

Home | Current Version | Previous Version | Text Only | Print | Product List | Glossary On
Versions: 1 2 3 4 5 6 7 8 9 10 11 12 13 14 15 16 17
000
FTUS43 KLMK 220500
TAFSDF
TAF
KSDF 220520Z 2206/2312 12004KT P6SM BKN040
     FM221200 12005KT P6SM BKN025
     FM230000 15009KT P6SM VCSH BKN015
     FM230300 16007KT 4SM -RA BR BKN010=

USA.gov is the U.S. government's official web portal to all federal, state and local government web resources and services.